sensor_id;sensor_type;location;lat;lon;timestamp;P1;durP1;ratioP1;P2;durP2;ratioP2
20861;SDS011;10591;52.532;13.348;2022-10-31T00:00:33;33.88;;;24.92;;
20861;SDS011;10591;52.532;13.348;2022-10-31T00:03:03;35.17;;;24.45;;
20861;SDS011;10591;52.532;13.348;2022-10-31T00:05:34;32.05;;;25.08;;
20861;SDS011;10591;52.532;13.348;2022-10-31T00:08:04;31.60;;;23.50;;
20861;SDS011;10591;52.532;13.348;2022-10-31T00:10:45;32.40;;;24.25;;
20861;SDS011;10591;52.532;13.348;2022-10-31T00:13:12;35.25;;;24.37;;
20861;SDS011;10591;52.532;13.348;2022-10-31T00:15:43;32.03;;;24.15;;
20861;SDS011;10591;52.532;13.348;2022-10-31T00:18:15;30.80;;;24.27;;
20861;SDS011;10591;52.532;13.348;2022-10-31T00:20:47;31.55;;;24.55;;
20861;SDS011;10591;52.532;13.348;2022-10-31T00:23:17;32.88;;;24.43;;
20861;SDS011;10591;52.532;13.348;2022-10-31T00:25:48;34.40;;;24.43;;
20861;SDS011;10591;52.532;13.348;2022-10-31T00:28:18;32.15;;;23.30;;
20861;SDS011;10591;52.532;13.348;2022-10-31T00:30:49;31.45;;;23.67;;
20861;SDS011;10591;52.532;13.348;2022-10-31T00:33:19;30.68;;;23.65;;
20861;SDS011;10591;52.532;13.348;2022-10-31T00:35:50;29.25;;;23.18;;
20861;SDS011;10591;52.532;13.348;2022-10-31T00:38:20;31.57;;;24.15;;
20861;SDS011;10591;52.532;13.348;2022-10-31T00:40:51;28.98;;;22.20;;
20861;SDS011;10591;52.532;13.348;2022-10-31T00:43:22;28.02;;;23.83;;
20861;SDS011;10591;52.532;13.348;2022-10-31T00:45:52;34.83;;;23.50;;
20861;SDS011;10591;52.532;13.348;2022-10-31T00:48:23;31.05;;;22.90;;
20861;SDS011;10591;52.532;13.348;2022-10-31T00:50:53;30.25;;;22.62;;
20861;SDS011;10591;52.532;13.348;2022-10-31T00:53:23;28.52;;;21.70;;
20861;SDS011;10591;52.532;13.348;2022-10-31T00:55:54;32.25;;;22.85;;
20861;SDS011;10591;52.532;13.348;2022-10-31T00:58:24;27.58;;;22.40;;
20861;SDS011;10591;52.532;13.348;2022-10-31T01:00:55;26.07;;;21.20;;
20861;SDS011;10591;52.532;13.348;2022-10-31T01:03:27;27.50;;;22.52;;
20861;SDS011;10591;52.532;13.348;2022-10-31T01:06:11;24.98;;;20.90;;
20861;SDS011;10591;52.532;13.348;2022-10-31T01:08:38;30.30;;;22.52;;
20861;SDS011;10591;52.532;13.348;2022-10-31T01:11:13;25.40;;;21.02;;
20861;SDS011;10591;52.532;13.348;2022-10-31T01:13:45;22.37;;;19.48;;
20861;SDS011;10591;52.532;13.348;2022-10-31T01:16:17;25.60;;;20.20;;
20861;SDS011;10591;52.532;13.348;2022-10-31T01:18:48;24.67;;;20.20;;
20861;SDS011;10591;52.532;13.348;2022-10-31T01:21:21;25.75;;;20.52;;
20861;SDS011;10591;52.532;13.348;2022-10-31T01:23:53;27.80;;;19.62;;
20861;SDS011;10591;52.532;13.348;2022-10-31T01:26:26;24.67;;;20.60;;
20861;SDS011;10591;52.532;13.348;2022-10-31T01:29:01;26.73;;;19.85;;
20861;SDS011;10591;52.532;13.348;2022-10-31T01:31:37;25.97;;;20.08;;
20861;SDS011;10591;52.532;13.348;2022-10-31T01:34:09;24.72;;;19.62;;
20861;SDS011;10591;52.532;13.348;2022-10-31T01:36:45;23.42;;;20.15;;
20861;SDS011;10591;52.532;13.348;2022-10-31T01:39:17;25.60;;;20.68;;
20861;SDS011;10591;52.532;13.348;2022-10-31T01:41:54;25.15;;;19.57;;
20861;SDS011;10591;52.532;13.348;2022-10-31T01:47:01;25.08;;;18.60;;
20861;SDS011;10591;52.532;13.348;2022-10-31T01:54:53;22.42;;;18.75;;
20861;SDS011;10591;52.532;13.348;2022-10-31T01:57:20;25.62;;;18.67;;
20861;SDS011;10591;52.532;13.348;2022-10-31T01:59:53;22.75;;;18.27;;
20861;SDS011;10591;52.532;13.348;2022-10-31T02:02:25;23.98;;;18.42;;
20861;SDS011;10591;52.532;13.348;2022-10-31T02:04:58;22.75;;;18.32;;
20861;SDS011;10591;52.532;13.348;2022-10-31T02:07:36;21.65;;;17.48;;
20861;SDS011;10591;52.532;13.348;2022-10-31T02:10:10;22.32;;;18.70;;
20861;SDS011;10591;52.532;13.348;2022-10-31T02:12:40;27.85;;;18.80;;
20861;SDS011;10591;52.532;13.348;2022-10-31T02:15:11;25.85;;;18.20;;
20861;SDS011;10591;52.532;13.348;2022-10-31T02:17:41;26.60;;;18.42;;
20861;SDS011;10591;52.532;13.348;2022-10-31T02:20:16;24.87;;;18.73;;
20861;SDS011;10591;52.532;13.348;2022-10-31T02:25:46;21.80;;;18.80;;
20861;SDS011;10591;52.532;13.348;2022-10-31T02:31:40;22.90;;;18.92;;
20861;SDS011;10591;52.532;13.348;2022-10-31T02:34:17;25.27;;;18.15;;
20861;SDS011;10591;52.532;13.348;2022-10-31T02:37:13;23.25;;;18.70;;
20861;SDS011;10591;52.532;13.348;2022-10-31T02:39:54;24.25;;;18.07;;
20861;SDS011;10591;52.532;13.348;2022-10-31T02:42:30;23.90;;;19.02;;
20861;SDS011;10591;52.532;13.348;2022-10-31T02:45:21;22.10;;;17.87;;
20861;SDS011;10591;52.532;13.348;2022-10-31T02:47:59;24.23;;;17.57;;
20861;SDS011;10591;52.532;13.348;2022-10-31T02:50:32;25.10;;;18.77;;
20861;SDS011;10591;52.532;13.348;2022-10-31T02:53:05;21.23;;;18.45;;
20861;SDS011;10591;52.532;13.348;2022-10-31T02:58:11;21.80;;;18.05;;
20861;SDS011;10591;52.532;13.348;2022-10-31T03:00:54;23.32;;;18.05;;
20861;SDS011;10591;52.532;13.348;2022-10-31T03:06:17;20.48;;;17.00;;
20861;SDS011;10591;52.532;13.348;2022-10-31T03:08:54;22.05;;;17.70;;
20861;SDS011;10591;52.532;13.348;2022-10-31T03:11:23;27.80;;;18.42;;
20861;SDS011;10591;52.532;13.348;2022-10-31T03:16:48;21.40;;;17.80;;
20861;SDS011;10591;52.532;13.348;2022-10-31T03:19:24;22.07;;;17.80;;
20861;SDS011;10591;52.532;13.348;2022-10-31T03:22:00;24.50;;;18.52;;
20861;SDS011;10591;52.532;13.348;2022-10-31T03:24:35;22.70;;;18.07;;
20861;SDS011;10591;52.532;13.348;2022-10-31T03:27:07;28.55;;;18.75;;
20861;SDS011;10591;52.532;13.348;2022-10-31T03:29:40;21.68;;;17.10;;
20861;SDS011;10591;52.532;13.348;2022-10-31T03:32:15;21.70;;;17.85;;
20861;SDS011;10591;52.532;13.348;2022-10-31T03:34:46;20.30;;;16.57;;
20861;SDS011;10591;52.532;13.348;2022-10-31T03:37:18;19.70;;;16.23;;
20861;SDS011;10591;52.532;13.348;2022-10-31T03:39:50;20.92;;;15.90;;
20861;SDS011;10591;52.532;13.348;2022-10-31T03:42:22;18.92;;;16.05;;
20861;SDS011;10591;52.532;13.348;2022-10-31T03:45:02;18.27;;;15.90;;
20861;SDS011;10591;52.532;13.348;2022-10-31T03:47:37;21.50;;;15.80;;
20861;SDS011;10591;52.532;13.348;2022-10-31T03:50:08;23.40;;;15.77;;
20861;SDS011;10591;52.532;13.348;2022-10-31T03:52:43;22.05;;;15.55;;
20861;SDS011;10591;52.532;13.348;2022-10-31T03:55:19;17.17;;;14.30;;
20861;SDS011;10591;52.532;13.348;2022-10-31T03:58:00;19.37;;;14.38;;
20861;SDS011;10591;52.532;13.348;2022-10-31T04:00:32;20.60;;;14.75;;
20861;SDS011;10591;52.532;13.348;2022-10-31T04:03:09;23.38;;;15.93;;
20861;SDS011;10591;52.532;13.348;2022-10-31T04:05:41;18.57;;;15.00;;
20861;SDS011;10591;52.532;13.348;2022-10-31T04:08:17;21.75;;;14.83;;
20861;SDS011;10591;52.532;13.348;2022-10-31T04:10:48;18.80;;;14.75;;
20861;SDS011;10591;52.532;13.348;2022-10-31T04:13:22;20.32;;;15.08;;
20861;SDS011;10591;52.532;13.348;2022-10-31T04:15:54;17.75;;;14.10;;
20861;SDS011;10591;52.532;13.348;2022-10-31T04:18:25;20.90;;;14.63;;
20861;SDS011;10591;52.532;13.348;2022-10-31T04:21:00;18.30;;;14.35;;
20861;SDS011;10591;52.532;13.348;2022-10-31T04:23:32;19.17;;;14.47;;
20861;SDS011;10591;52.532;13.348;2022-10-31T04:26:04;17.82;;;13.50;;
20861;SDS011;10591;52.532;13.348;2022-10-31T04:28:34;19.50;;;14.45;;
20861;SDS011;10591;52.532;13.348;2022-10-31T04:31:05;18.30;;;14.35;;
20861;SDS011;10591;52.532;13.348;2022-10-31T04:33:35;19.35;;;14.15;;
20861;SDS011;10591;52.532;13.348;2022-10-31T04:36:06;20.68;;;14.65;;
20861;SDS011;10591;52.532;13.348;2022-10-31T04:38:36;20.65;;;14.10;;
20861;SDS011;10591;52.532;13.348;2022-10-31T04:41:07;21.27;;;14.30;;
20861;SDS011;10591;52.532;13.348;2022-10-31T04:43:37;19.42;;;14.25;;
20861;SDS011;10591;52.532;13.348;2022-10-31T04:46:07;20.23;;;14.13;;
20861;SDS011;10591;52.532;13.348;2022-10-31T04:48:38;18.25;;;14.30;;
20861;SDS011;10591;52.532;13.348;2022-10-31T04:51:08;21.33;;;14.33;;
20861;SDS011;10591;52.532;13.348;2022-10-31T04:53:39;19.20;;;14.95;;
20861;SDS011;10591;52.532;13.348;2022-10-31T04:56:09;17.95;;;13.83;;
20861;SDS011;10591;52.532;13.348;2022-10-31T04:58:40;16.80;;;13.55;;
20861;SDS011;10591;52.532;13.348;2022-10-31T05:01:10;17.90;;;13.70;;
20861;SDS011;10591;52.532;13.348;2022-10-31T05:03:41;17.98;;;14.07;;
20861;SDS011;10591;52.532;13.348;2022-10-31T05:06:11;19.27;;;14.33;;
20861;SDS011;10591;52.532;13.348;2022-10-31T05:08:41;19.60;;;14.68;;
20861;SDS011;10591;52.532;13.348;2022-10-31T05:11:12;18.12;;;14.10;;
20861;SDS011;10591;52.532;13.348;2022-10-31T05:13:42;20.97;;;14.47;;
20861;SDS011;10591;52.532;13.348;2022-10-31T05:16:13;20.80;;;14.55;;
20861;SDS011;10591;52.532;13.348;2022-10-31T05:18:43;18.85;;;14.05;;
20861;SDS011;10591;52.532;13.348;2022-10-31T05:21:14;18.65;;;14.43;;
20861;SDS011;10591;52.532;13.348;2022-10-31T05:23:44;19.40;;;14.98;;
20861;SDS011;10591;52.532;13.348;2022-10-31T05:26:16;21.20;;;14.78;;
20861;SDS011;10591;52.532;13.348;2022-10-31T05:28:47;24.05;;;15.00;;
20861;SDS011;10591;52.532;13.348;2022-10-31T05:31:17;18.92;;;14.95;;
20861;SDS011;10591;52.532;13.348;2022-10-31T05:33:47;22.48;;;14.95;;
20861;SDS011;10591;52.532;13.348;2022-10-31T05:36:18;21.62;;;15.35;;
20861;SDS011;10591;52.532;13.348;2022-10-31T05:38:50;19.85;;;15.25;;
20861;SDS011;10591;52.532;13.348;2022-10-31T05:41:20;19.25;;;15.50;;
20861;SDS011;10591;52.532;13.348;2022-10-31T05:43:51;21.25;;;14.80;;
20861;SDS011;10591;52.532;13.348;2022-10-31T05:46:21;18.77;;;14.53;;
20861;SDS011;10591;52.532;13.348;2022-10-31T05:48:52;20.05;;;15.08;;
20861;SDS011;10591;52.532;13.348;2022-10-31T05:51:24;20.37;;;14.87;;
20861;SDS011;10591;52.532;13.348;2022-10-31T05:53:54;18.98;;;14.13;;
20861;SDS011;10591;52.532;13.348;2022-10-31T05:56:24;19.60;;;14.50;;
20861;SDS011;10591;52.532;13.348;2022-10-31T05:58:55;18.48;;;14.90;;
20861;SDS011;10591;52.532;13.348;2022-10-31T06:01:25;22.20;;;15.35;;
20861;SDS011;10591;52.532;13.348;2022-10-31T06:03:56;23.62;;;17.30;;
20861;SDS011;10591;52.532;13.348;2022-10-31T06:06:26;26.52;;;17.95;;
20861;SDS011;10591;52.532;13.348;2022-10-31T06:08:57;22.37;;;16.32;;
20861;SDS011;10591;52.532;13.348;2022-10-31T06:11:27;18.95;;;15.25;;
20861;SDS011;10591;52.532;13.348;2022-10-31T06:13:57;24.35;;;15.38;;
20861;SDS011;10591;52.532;13.348;2022-10-31T06:16:28;19.80;;;16.30;;
20861;SDS011;10591;52.532;13.348;2022-10-31T06:18:58;24.20;;;15.50;;
20861;SDS011;10591;52.532;13.348;2022-10-31T06:21:29;21.02;;;15.93;;
20861;SDS011;10591;52.532;13.348;2022-10-31T06:23:59;21.10;;;15.43;;
20861;SDS011;10591;52.532;13.348;2022-10-31T06:26:30;20.90;;;15.43;;
20861;SDS011;10591;52.532;13.348;2022-10-31T06:29:01;22.87;;;16.67;;
20861;SDS011;10591;52.532;13.348;2022-10-31T06:31:32;24.37;;;16.37;;
20861;SDS011;10591;52.532;13.348;2022-10-31T06:34:02;24.15;;;15.55;;
20861;SDS011;10591;52.532;13.348;2022-10-31T06:36:33;24.45;;;15.20;;
20861;SDS011;10591;52.532;13.348;2022-10-31T06:39:03;20.82;;;15.05;;
20861;SDS011;10591;52.532;13.348;2022-10-31T06:41:34;22.50;;;14.45;;
20861;SDS011;10591;52.532;13.348;2022-10-31T06:44:05;19.02;;;14.87;;
20861;SDS011;10591;52.532;13.348;2022-10-31T06:46:36;18.85;;;15.23;;
20861;SDS011;10591;52.532;13.348;2022-10-31T06:49:07;23.83;;;18.17;;
20861;SDS011;10591;52.532;13.348;2022-10-31T06:51:37;24.65;;;17.52;;
20861;SDS011;10591;52.532;13.348;2022-10-31T06:54:08;22.93;;;16.00;;
20861;SDS011;10591;52.532;13.348;2022-10-31T06:56:38;21.02;;;15.43;;
20861;SDS011;10591;52.532;13.348;2022-10-31T06:59:09;21.52;;;15.48;;
20861;SDS011;10591;52.532;13.348;2022-10-31T07:01:39;20.25;;;15.00;;
20861;SDS011;10591;52.532;13.348;2022-10-31T07:04:10;18.02;;;15.03;;
20861;SDS011;10591;52.532;13.348;2022-10-31T07:06:40;19.32;;;15.18;;
20861;SDS011;10591;52.532;13.348;2022-10-31T07:09:12;22.35;;;15.05;;
20861;SDS011;10591;52.532;13.348;2022-10-31T07:11:42;21.75;;;14.93;;
20861;SDS011;10591;52.532;13.348;2022-10-31T07:14:13;23.90;;;15.63;;
20861;SDS011;10591;52.532;13.348;2022-10-31T07:16:43;19.52;;;15.05;;
20861;SDS011;10591;52.532;13.348;2022-10-31T07:19:16;22.40;;;14.38;;
20861;SDS011;10591;52.532;13.348;2022-10-31T07:21:47;21.35;;;15.28;;
20861;SDS011;10591;52.532;13.348;2022-10-31T07:24:17;20.60;;;15.23;;
20861;SDS011;10591;52.532;13.348;2022-10-31T07:26:48;22.70;;;14.90;;
20861;SDS011;10591;52.532;13.348;2022-10-31T07:29:18;23.20;;;15.28;;
20861;SDS011;10591;52.532;13.348;2022-10-31T07:31:49;23.87;;;16.48;;
20861;SDS011;10591;52.532;13.348;2022-10-31T07:34:20;21.05;;;14.90;;
20861;SDS011;10591;52.532;13.348;2022-10-31T07:36:50;20.92;;;15.53;;
20861;SDS011;10591;52.532;13.348;2022-10-31T07:39:21;22.48;;;15.72;;
20861;SDS011;10591;52.532;13.348;2022-10-31T07:41:51;19.48;;;15.60;;
20861;SDS011;10591;52.532;13.348;2022-10-31T07:44:22;21.68;;;16.25;;
20861;SDS011;10591;52.532;13.348;2022-10-31T07:46:52;22.27;;;15.70;;
20861;SDS011;10591;52.532;13.348;2022-10-31T07:49:22;23.40;;;15.72;;
20861;SDS011;10591;52.532;13.348;2022-10-31T07:51:54;21.65;;;16.48;;
20861;SDS011;10591;52.532;13.348;2022-10-31T07:54:25;22.85;;;16.82;;
20861;SDS011;10591;52.532;13.348;2022-10-31T07:56:55;27.20;;;17.15;;
20861;SDS011;10591;52.532;13.348;2022-10-31T07:59:26;25.45;;;17.17;;
20861;SDS011;10591;52.532;13.348;2022-10-31T08:01:56;24.45;;;17.00;;
20861;SDS011;10591;52.532;13.348;2022-10-31T08:04:26;26.97;;;17.80;;
20861;SDS011;10591;52.532;13.348;2022-10-31T08:06:57;22.65;;;16.42;;
20861;SDS011;10591;52.532;13.348;2022-10-31T08:09:27;23.92;;;17.32;;
20861;SDS011;10591;52.532;13.348;2022-10-31T08:11:58;25.65;;;16.73;;
20861;SDS011;10591;52.532;13.348;2022-10-31T08:14:29;27.98;;;17.62;;
20861;SDS011;10591;52.532;13.348;2022-10-31T08:17:00;22.42;;;16.17;;
20861;SDS011;10591;52.532;13.348;2022-10-31T08:19:30;24.57;;;17.65;;
20861;SDS011;10591;52.532;13.348;2022-10-31T08:22:01;21.50;;;16.48;;
20861;SDS011;10591;52.532;13.348;2022-10-31T08:24:31;23.18;;;17.00;;
20861;SDS011;10591;52.532;13.348;2022-10-31T08:27:02;27.27;;;18.57;;
20861;SDS011;10591;52.532;13.348;2022-10-31T08:29:32;26.20;;;17.60;;
20861;SDS011;10591;52.532;13.348;2022-10-31T08:32:03;25.75;;;18.50;;
20861;SDS011;10591;52.532;13.348;2022-10-31T08:34:34;27.10;;;19.00;;
20861;SDS011;10591;52.532;13.348;2022-10-31T08:37:04;25.80;;;19.10;;
20861;SDS011;10591;52.532;13.348;2022-10-31T08:39:34;30.97;;;19.07;;
20861;SDS011;10591;52.532;13.348;2022-10-31T08:42:05;28.40;;;19.42;;
20861;SDS011;10591;52.532;13.348;2022-10-31T08:44:35;31.90;;;20.92;;
20861;SDS011;10591;52.532;13.348;2022-10-31T08:47:05;33.25;;;21.23;;
20861;SDS011;10591;52.532;13.348;2022-10-31T08:49:36;32.58;;;21.25;;
20861;SDS011;10591;52.532;13.348;2022-10-31T08:52:06;26.07;;;19.92;;
20861;SDS011;10591;52.532;13.348;2022-10-31T08:54:38;26.50;;;18.85;;
20861;SDS011;10591;52.532;13.348;2022-10-31T08:57:09;25.88;;;18.52;;
20861;SDS011;10591;52.532;13.348;2022-10-31T08:59:39;30.57;;;19.02;;
20861;SDS011;10591;52.532;13.348;2022-10-31T09:02:10;27.00;;;19.17;;
20861;SDS011;10591;52.532;13.348;2022-10-31T09:04:40;24.00;;;18.52;;
20861;SDS011;10591;52.532;13.348;2022-10-31T09:07:11;25.40;;;17.17;;
20861;SDS011;10591;52.532;13.348;2022-10-31T09:09:43;24.80;;;17.07;;
20861;SDS011;10591;52.532;13.348;2022-10-31T09:12:13;26.40;;;17.55;;
20861;SDS011;10591;52.532;13.348;2022-10-31T09:14:44;22.20;;;16.82;;
20861;SDS011;10591;52.532;13.348;2022-10-31T09:17:14;23.02;;;16.10;;
20861;SDS011;10591;52.532;13.348;2022-10-31T09:19:44;22.25;;;16.48;;
20861;SDS011;10591;52.532;13.348;2022-10-31T09:22:15;22.87;;;16.70;;
20861;SDS011;10591;52.532;13.348;2022-10-31T09:24:45;24.27;;;16.70;;
20861;SDS011;10591;52.532;13.348;2022-10-31T09:27:15;25.10;;;17.30;;
20861;SDS011;10591;52.532;13.348;2022-10-31T09:29:46;26.25;;;17.77;;
20861;SDS011;10591;52.532;13.348;2022-10-31T09:32:16;23.55;;;17.15;;
20861;SDS011;10591;52.532;13.348;2022-10-31T09:34:46;25.30;;;18.10;;
20861;SDS011;10591;52.532;13.348;2022-10-31T09:37:22;23.62;;;17.10;;
20861;SDS011;10591;52.532;13.348;2022-10-31T09:39:53;23.67;;;17.98;;
20861;SDS011;10591;52.532;13.348;2022-10-31T09:42:34;24.07;;;18.07;;
20861;SDS011;10591;52.532;13.348;2022-10-31T09:45:20;26.45;;;19.32;;
20861;SDS011;10591;52.532;13.348;2022-10-31T09:48:07;30.60;;;19.32;;
20861;SDS011;10591;52.532;13.348;2022-10-31T09:51:03;27.17;;;18.70;;
20861;SDS011;10591;52.532;13.348;2022-10-31T09:53:41;26.95;;;18.55;;
20861;SDS011;10591;52.532;13.348;2022-10-31T09:56:22;23.10;;;16.48;;
20861;SDS011;10591;52.532;13.348;2022-10-31T09:58:55;26.68;;;18.62;;
20861;SDS011;10591;52.532;13.348;2022-10-31T10:06:49;24.15;;;19.77;;
20861;SDS011;10591;52.532;13.348;2022-10-31T10:09:22;22.30;;;18.52;;
20861;SDS011;10591;52.532;13.348;2022-10-31T10:11:58;22.65;;;17.52;;
20861;SDS011;10591;52.532;13.348;2022-10-31T10:17:29;24.43;;;16.97;;
20861;SDS011;10591;52.532;13.348;2022-10-31T10:25:45;21.80;;;17.60;;
20861;SDS011;10591;52.532;13.348;2022-10-31T10:28:23;25.23;;;19.37;;
20861;SDS011;10591;52.532;13.348;2022-10-31T10:30:59;24.07;;;18.42;;
20861;SDS011;10591;52.532;13.348;2022-10-31T10:33:37;24.47;;;17.77;;
20861;SDS011;10591;52.532;13.348;2022-10-31T10:36:12;22.13;;;17.62;;
20861;SDS011;10591;52.532;13.348;2022-10-31T10:39:08;23.42;;;17.60;;
20861;SDS011;10591;52.532;13.348;2022-10-31T10:41:35;24.77;;;18.85;;
20861;SDS011;10591;52.532;13.348;2022-10-31T10:44:11;23.75;;;17.92;;
20861;SDS011;10591;52.532;13.348;2022-10-31T10:46:44;25.95;;;18.62;;
20861;SDS011;10591;52.532;13.348;2022-10-31T10:49:43;25.45;;;17.77;;
20861;SDS011;10591;52.532;13.348;2022-10-31T10:52:25;23.18;;;18.15;;
20861;SDS011;10591;52.532;13.348;2022-10-31T10:58:00;32.53;;;20.65;;
20861;SDS011;10591;52.532;13.348;2022-10-31T11:00:38;23.95;;;18.82;;
20861;SDS011;10591;52.532;13.348;2022-10-31T11:03:14;26.65;;;20.17;;
20861;SDS011;10591;52.532;13.348;2022-10-31T11:05:55;27.73;;;18.98;;
20861;SDS011;10591;52.532;13.348;2022-10-31T11:08:31;22.58;;;19.77;;
20861;SDS011;10591;52.532;13.348;2022-10-31T11:11:05;30.80;;;21.35;;
20861;SDS011;10591;52.532;13.348;2022-10-31T11:13:40;24.40;;;19.75;;
20861;SDS011;10591;52.532;13.348;2022-10-31T11:16:13;26.05;;;19.40;;
20861;SDS011;10591;52.532;13.348;2022-10-31T11:21:46;27.42;;;19.32;;
20861;SDS011;10591;52.532;13.348;2022-10-31T11:24:22;24.77;;;19.48;;
20861;SDS011;10591;52.532;13.348;2022-10-31T11:27:05;25.23;;;19.73;;
20861;SDS011;10591;52.532;13.348;2022-10-31T11:29:48;25.15;;;20.10;;
20861;SDS011;10591;52.532;13.348;2022-10-31T11:32:22;28.00;;;19.67;;
20861;SDS011;10591;52.532;13.348;2022-10-31T11:34:58;28.95;;;20.17;;
20861;SDS011;10591;52.532;13.348;2022-10-31T11:37:31;25.62;;;19.45;;
20861;SDS011;10591;52.532;13.348;2022-10-31T11:40:04;26.82;;;19.23;;
20861;SDS011;10591;52.532;13.348;2022-10-31T11:42:37;27.65;;;20.17;;
20861;SDS011;10591;52.532;13.348;2022-10-31T11:45:17;27.82;;;19.60;;
20861;SDS011;10591;52.532;13.348;2022-10-31T11:47:52;26.75;;;18.50;;
20861;SDS011;10591;52.532;13.348;2022-10-31T11:50:29;26.25;;;19.90;;
20861;SDS011;10591;52.532;13.348;2022-10-31T11:53:03;24.32;;;19.40;;
20861;SDS011;10591;52.532;13.348;2022-10-31T11:55:42;23.85;;;20.15;;
20861;SDS011;10591;52.532;13.348;2022-10-31T11:58:19;27.60;;;19.95;;
20861;SDS011;10591;52.532;13.348;2022-10-31T12:00:52;27.05;;;19.27;;
20861;SDS011;10591;52.532;13.348;2022-10-31T12:06:16;24.05;;;18.52;;
20861;SDS011;10591;52.532;13.348;2022-10-31T12:08:48;28.07;;;21.12;;
20861;SDS011;10591;52.532;13.348;2022-10-31T12:14:20;30.05;;;21.20;;
20861;SDS011;10591;52.532;13.348;2022-10-31T12:22:56;24.92;;;19.30;;
20861;SDS011;10591;52.532;13.348;2022-10-31T12:25:43;29.52;;;19.30;;
20861;SDS011;10591;52.532;13.348;2022-10-31T12:43:07;25.50;;;18.35;;
20861;SDS011;10591;52.532;13.348;2022-10-31T12:45:55;32.28;;;23.73;;
20861;SDS011;10591;52.532;13.348;2022-10-31T12:51:05;28.55;;;21.48;;
20861;SDS011;10591;52.532;13.348;2022-10-31T12:58:59;28.90;;;20.12;;
20861;SDS011;10591;52.532;13.348;2022-10-31T13:01:34;26.42;;;19.17;;
20861;SDS011;10591;52.532;13.348;2022-10-31T13:04:13;29.05;;;20.17;;
20861;SDS011;10591;52.532;13.348;2022-10-31T13:06:49;26.82;;;20.37;;
20861;SDS011;10591;52.532;13.348;2022-10-31T13:12:07;28.83;;;20.65;;
20861;SDS011;10591;52.532;13.348;2022-10-31T13:14:54;28.45;;;21.77;;
20861;SDS011;10591;52.532;13.348;2022-10-31T13:17:28;29.07;;;20.27;;
20861;SDS011;10591;52.532;13.348;2022-10-31T13:20:17;26.02;;;19.60;;
20861;SDS011;10591;52.532;13.348;2022-10-31T13:25:53;28.65;;;21.48;;
20861;SDS011;10591;52.532;13.348;2022-10-31T13:28:29;26.62;;;20.48;;
20861;SDS011;10591;52.532;13.348;2022-10-31T13:31:08;29.63;;;21.15;;
20861;SDS011;10591;52.532;13.348;2022-10-31T13:33:39;28.20;;;21.97;;
20861;SDS011;10591;52.532;13.348;2022-10-31T13:38:56;27.00;;;21.33;;
20861;SDS011;10591;52.532;13.348;2022-10-31T13:42:13;30.72;;;23.40;;
20861;SDS011;10591;52.532;13.348;2022-10-31T13:46:54;39.58;;;27.40;;
20861;SDS011;10591;52.532;13.348;2022-10-31T13:54:43;37.48;;;27.67;;
20861;SDS011;10591;52.532;13.348;2022-10-31T13:57:28;36.93;;;26.82;;
20861;SDS011;10591;52.532;13.348;2022-10-31T14:00:14;40.23;;;27.22;;
20861;SDS011;10591;52.532;13.348;2022-10-31T14:02:53;43.38;;;28.75;;
20861;SDS011;10591;52.532;13.348;2022-10-31T14:08:02;40.40;;;29.40;;
20861;SDS011;10591;52.532;13.348;2022-10-31T14:10:35;37.13;;;27.37;;
20861;SDS011;10591;52.532;13.348;2022-10-31T14:13:08;42.65;;;28.90;;
20861;SDS011;10591;52.532;13.348;2022-10-31T14:15:54;39.48;;;28.23;;
20861;SDS011;10591;52.532;13.348;2022-10-31T14:18:36;44.95;;;29.70;;
20861;SDS011;10591;52.532;13.348;2022-10-31T14:23:54;42.48;;;29.55;;
20861;SDS011;10591;52.532;13.348;2022-10-31T14:29:00;40.38;;;28.80;;
20861;SDS011;10591;52.532;13.348;2022-10-31T14:31:36;49.70;;;33.85;;
20861;SDS011;10591;52.532;13.348;2022-10-31T14:36:57;45.80;;;30.95;;
20861;SDS011;10591;52.532;13.348;2022-10-31T14:48:27;48.08;;;33.15;;
20861;SDS011;10591;52.532;13.348;2022-10-31T14:51:11;52.05;;;32.83;;
20861;SDS011;10591;52.532;13.348;2022-10-31T14:53:46;49.85;;;32.33;;
20861;SDS011;10591;52.532;13.348;2022-10-31T14:56:29;51.25;;;32.93;;
20861;SDS011;10591;52.532;13.348;2022-10-31T14:58:59;53.48;;;34.38;;
20861;SDS011;10591;52.532;13.348;2022-10-31T15:01:32;46.02;;;33.15;;
20861;SDS011;10591;52.532;13.348;2022-10-31T15:04:07;51.40;;;33.75;;
20861;SDS011;10591;52.532;13.348;2022-10-31T15:06:47;51.75;;;33.50;;
20861;SDS011;10591;52.532;13.348;2022-10-31T15:09:23;51.35;;;33.80;;
20861;SDS011;10591;52.532;13.348;2022-10-31T15:11:59;53.17;;;33.38;;
20861;SDS011;10591;52.532;13.348;2022-10-31T15:14:31;52.10;;;33.18;;
20861;SDS011;10591;52.532;13.348;2022-10-31T15:17:03;53.42;;;35.55;;
20861;SDS011;10591;52.532;13.348;2022-10-31T15:19:33;53.78;;;33.67;;
20861;SDS011;10591;52.532;13.348;2022-10-31T15:22:05;50.67;;;33.20;;
20861;SDS011;10591;52.532;13.348;2022-10-31T15:24:38;54.25;;;33.23;;
20861;SDS011;10591;52.532;13.348;2022-10-31T15:27:15;51.75;;;34.40;;
20861;SDS011;10591;52.532;13.348;2022-10-31T15:29:53;51.90;;;33.42;;
20861;SDS011;10591;52.532;13.348;2022-10-31T15:34:53;56.80;;;35.63;;
20861;SDS011;10591;52.532;13.348;2022-10-31T15:37:26;56.20;;;35.68;;
20861;SDS011;10591;52.532;13.348;2022-10-31T15:40:05;56.18;;;34.95;;
20861;SDS011;10591;52.532;13.348;2022-10-31T15:42:39;56.42;;;36.17;;
20861;SDS011;10591;52.532;13.348;2022-10-31T15:45:12;59.15;;;36.50;;
20861;SDS011;10591;52.532;13.348;2022-10-31T15:47:52;54.83;;;36.23;;
20861;SDS011;10591;52.532;13.348;2022-10-31T15:50:39;54.88;;;35.25;;
20861;SDS011;10591;52.532;13.348;2022-10-31T15:53:16;56.05;;;35.23;;
20861;SDS011;10591;52.532;13.348;2022-10-31T15:55:50;53.02;;;36.20;;
20861;SDS011;10591;52.532;13.348;2022-10-31T15:58:28;57.40;;;35.58;;
20861;SDS011;10591;52.532;13.348;2022-10-31T16:01:04;54.45;;;36.50;;
20861;SDS011;10591;52.532;13.348;2022-10-31T16:03:36;54.35;;;36.20;;
20861;SDS011;10591;52.532;13.348;2022-10-31T16:06:18;64.30;;;38.55;;
20861;SDS011;10591;52.532;13.348;2022-10-31T16:08:49;58.83;;;37.03;;
20861;SDS011;10591;52.532;13.348;2022-10-31T16:11:33;57.60;;;36.13;;
20861;SDS011;10591;52.532;13.348;2022-10-31T16:14:07;56.05;;;36.17;;
20861;SDS011;10591;52.532;13.348;2022-10-31T16:16:45;62.65;;;37.83;;
20861;SDS011;10591;52.532;13.348;2022-10-31T16:19:26;60.05;;;37.42;;
20861;SDS011;10591;52.532;13.348;2022-10-31T16:22:03;62.40;;;36.85;;
20861;SDS011;10591;52.532;13.348;2022-10-31T16:24:38;67.03;;;38.28;;
20861;SDS011;10591;52.532;13.348;2022-10-31T16:27:15;63.45;;;37.80;;
20861;SDS011;10591;52.532;13.348;2022-10-31T16:29:51;70.08;;;40.35;;
20861;SDS011;10591;52.532;13.348;2022-10-31T16:32:27;69.62;;;41.02;;
20861;SDS011;10591;52.532;13.348;2022-10-31T16:37:41;68.30;;;39.65;;
20861;SDS011;10591;52.532;13.348;2022-10-31T16:40:18;69.00;;;39.95;;
20861;SDS011;10591;52.532;13.348;2022-10-31T16:42:44;61.83;;;38.58;;